Time;durP1;ratioP1;P1;durP2;ratioP2;P2;SDS_P1;SDS_P2;PMS_P1;PMS_P2;Temp;Humidity;BMP_temperature;BMP_pressure;BME280_temperature;BME280_humidity;BME280_pressure;Samples;Min_cycle;Max_cycle;Signal;HPM_P1;HPM_P2
2021/05/19 00:00:19;;;;;;;;;;;;;;;;;;1764200;80;20469;-90
2021/05/19 00:02:48;;;;;;;;;;;;;;;;;;1769928;80;20531;-90
2021/05/19 00:05:17;;;;;;;;;;;;;;;;;;1772307;79;20261;-90
2021/05/19 00:07:46;;;;;;;;;;;;;;;;;;1767078;80;20168;-90
2021/05/19 00:10:15;;;;;;;;;;;;;;;;;;1775597;79;20142;-90
2021/05/19 00:12:45;;;;;;;;;;;;;;;;;;1768227;79;20271;-87
2021/05/19 00:15:14;;;;;;;;;;;;;;;;;;1773300;79;20206;-90
2021/05/19 00:17:49;;;;;;;;;;;;;;;;;;1761553;80;20246;-91
2021/05/19 00:23:17;;;;;;;;;;;;;;;;;;1759477;80;20166;-91
2021/05/19 00:25:46;;;;;;;;;;;;;;;;;;1763686;80;20775;-90
2021/05/19 00:28:41;;;;;;;;;;;;;;;;;;;;;
2021/05/19 00:31:09;;;;;;;;;;;;;;;;;;1757298;79;20276;-88
2021/05/19 00:33:42;;;;;;;;;;;;;;;;;;1770627;80;20221;-90
2021/05/19 00:36:14;;;;;;;;;;;;;;;;;;1773112;80;20525;-89
2021/05/19 00:38:47;;;;;;;;;;;;;;;;;;1766551;79;20141;-89
2021/05/19 00:41:16;;;;;;;;;;;;;;;;;;1771274;80;20214;-87
2021/05/19 00:43:45;;;;;;;;;;;;;;;;;;1776775;79;20278;-84
2021/05/19 00:46:14;;;;;;;;;;;;;;;;;;1764685;80;20214;-86
2021/05/19 00:51:35;;;;;;;;;;;;;;;;;;1725259;81;20564;-79
2021/05/19 00:54:04;;;;;;;;;;;;;;;;;;1722103;82;20233;-78
2021/05/19 00:56:33;;;;;;;;;;;;;;;;;;1730290;82;20238;-79
2021/05/19 00:59:02;;;;;;;;;;;;;;;;;;1730797;82;20284;-79
2021/05/19 01:01:35;;;;;;;;;;;;;;;;;;1730970;82;20269;-78
2021/05/19 01:04:02;;;;;;;;;;;;;;;;;;1733835;82;20185;-77
2021/05/19 01:06:46;;;;;;;;;;;;;;;;;;1732019;81;20227;-77
2021/05/19 01:11:33;;;;;;;;;;;;;;;;;;1737601;81;20227;-78
2021/05/19 01:14:03;;;;;;;;;;;;;;;;;;1725567;81;20459;-78
2021/05/19 01:16:33;;;;;;;;;;;;;;;;;;1728305;81;20345;-78
2021/05/19 01:19:02;;;;;;;;;;;;;;;;;;1731316;81;20188;-77
2021/05/19 01:21:31;;;;;;;;;;;;;;;;;;1733173;81;20611;-78
2021/05/19 01:24:00;;;;;;;;;;;;;;;;;;1738533;81;20176;-78
2021/05/19 01:26:29;;;;;;;;;;;;;;;;;;1721706;82;20227;-80
2021/05/19 01:29:01;;;;;;;;;;;;;;;;;;1754421;80;20512;-78
2021/05/19 01:31:29;;;;;;;;;;;;;;;;;;1773888;80;20182;-78
2021/05/19 01:33:59;;;;;;;;;;;;;;;;;;1767679;80;20202;-79
2021/05/19 01:36:29;;;;;;;;;;;;;;;;;;1767971;80;20245;-79
2021/05/19 01:38:58;;;;;;;;;;;;;;;;;;1761269;80;20524;-80
2021/05/19 01:41:28;;;;;;;;;;;;;;;;;;1772450;80;20578;-79
2021/05/19 01:43:57;;;;;;;;;;;;;;;;;;1755175;80;20173;-78
2021/05/19 01:46:26;;;;;;;;;;;;;;;;;;1760432;80;20257;-78
2021/05/19 01:48:55;;;;;;;;;;;;;;;;;;1758624;80;20182;-78
2021/05/19 01:51:24;;;;;;;;;;;;;;;;;;1766072;79;20257;-77
2021/05/19 01:53:53;;;;;;;;;;;;;;;;;;1776103;79;20159;-81
2021/05/19 01:56:22;;;;;;;;;;;;;;;;;;1769965;78;20524;-79
2021/05/19 01:58:52;;;;;;;;;;;;;;;;;;1771439;80;20248;-79
2021/05/19 02:01:21;;;;;;;;;;;;;;;;;;1767948;80;20863;-78
2021/05/19 02:03:50;;;;;;;;;;;;;;;;;;1773831;80;20198;-79
2021/05/19 02:06:20;;;;;;;;;;;;;;;;;;1772351;80;20217;-79
2021/05/19 02:08:49;;;;;;;;;;;;;;;;;;1762395;80;20144;-79
2021/05/19 02:11:18;;;;;;;;;;;;;;;;;;1764947;80;20213;-79
2021/05/19 02:13:47;;;;;;;;;;;;;;;;;;1786209;79;20531;-78
2021/05/19 02:16:17;;;;;;;;;;;;;;;;;;1774468;79;20217;-79
2021/05/19 02:18:46;;;;;;;;;;;;;;;;;;1772692;80;20186;-79
2021/05/19 02:21:15;;;;;;;;;;;;;;;;;;1772157;80;20248;-78
2021/05/19 02:23:44;;;;;;;;;;;;;;;;;;1767723;80;20137;-79
2021/05/19 02:26:13;;;;;;;;;;;;;;;;;;1774842;80;20246;-79
2021/05/19 02:28:42;;;;;;;;;;;;;;;;;;1781660;79;20492;-79
2021/05/19 02:31:12;;;;;;;;;;;;;;;;;;1771296;80;20820;-78
2021/05/19 02:33:41;;;;;;;;;;;;;;;;;;1772429;80;20534;-78
2021/05/19 02:36:10;;;;;;;;;;;;;;;;;;1775271;79;20131;-78
2021/05/19 02:38:39;;;;;;;;;;;;;;;;;;1774121;80;20190;-77
2021/05/19 02:41:08;;;;;;;;;;;;;;;;;;1766288;80;20267;-78
2021/05/19 02:43:37;;;;;;;;;;;;;;;;;;1770668;81;20181;-78
2021/05/19 02:46:07;;;;;;;;;;;;;;;;;;1771492;80;20352;-78
2021/05/19 02:48:36;;;;;;;;;;;;;;;;;;1773067;79;20171;-78
2021/05/19 02:51:05;;;;;;;;;;;;;;;;;;1775429;80;20216;-78
2021/05/19 02:53:35;;;;;;;;;;;;;;;;;;1773031;80;20218;-78
2021/05/19 02:56:04;;;;;;;;;;;;;;;;;;1780503;79;20139;-79
2021/05/19 02:58:33;;;;;;;;;;;;;;;;;;1779023;80;20277;-79
2021/05/19 03:01:02;;;;;;;;;;;;;;;;;;1777643;80;20252;-79
2021/05/19 03:03:31;;;;;;;;;;;;;;;;;;1778801;80;20321;-79
2021/05/19 03:06:01;;;;;;;;;;;;;;;;;;1772375;80;20128;-78
2021/05/19 03:08:30;;;;;;;;;;;;;;;;;;1777569;80;20410;-78
2021/05/19 03:11:00;;;;;;;;;;;;;;;;;;1777487;80;20261;-79
2021/05/19 03:13:29;;;;;;;;;;;;;;;;;;1777024;80;20199;-78
2021/05/19 03:15:59;;;;;;;;;;;;;;;;;;1777477;80;20178;-78
2021/05/19 03:18:28;;;;;;;;;;;;;;;;;;1777101;79;20164;-79
2021/05/19 03:21:00;;;;;;;;;;;;;;;;;;1780282;79;20481;-76
2021/05/19 03:23:28;;;;;;;;;;;;;;;;;;1775091;80;20173;-78
2021/05/19 03:25:58;;;;;;;;;;;;;;;;;;1781400;80;20150;-79
2021/05/19 03:28:27;;;;;;;;;;;;;;;;;;1776251;80;20199;-77
2021/05/19 03:30:57;;;;;;;;;;;33.20;80.00;;;;;;1779970;80;20669;-77
2021/05/19 03:33:28;;;;;;;;;;;33.10;81.80;;;;;;1778087;80;20265;-78
2021/05/19 03:35:58;;;;;;;;;;;33.00;80.60;;;;;;1784458;80;20194;-78
2021/05/19 03:38:28;;;;;;;;;;;33.10;79.10;;;;;;1787480;79;20143;-78
2021/05/19 03:40:58;;;;;;;;;;;33.10;80.20;;;;;;1783791;80;20413;-79
2021/05/19 03:43:28;;;;;;;;;;;33.10;80.00;;;;;;1785328;80;20201;-79
2021/05/19 03:45:58;;;;;;;;;;;33.10;81.20;;;;;;1780462;80;20159;-78
2021/05/19 03:48:28;;;;;;;;;;;33.20;80.30;;;;;;1784020;80;20220;-79
2021/05/19 03:50:58;;;;;;;;;;;33.30;80.10;;;;;;1761244;80;20238;-79
2021/05/19 03:53:28;;;;;;;;;;;33.40;79.20;;;;;;1775052;80;20664;-80
2021/05/19 03:55:58;;;;;;;;;;;33.40;77.50;;;;;;1769023;80;20261;-79
2021/05/19 03:58:28;;;;;;;;;;;33.40;78.20;;;;;;1760425;80;20204;-78
2021/05/19 04:00:57;;;;;;;;;;;33.40;79.00;;;;;;1760881;80;20218;-78
2021/05/19 04:03:27;;;;;;;;;;;33.40;78.40;;;;;;1771401;80;20196;-78
2021/05/19 04:05:57;;;;;;;;;;;33.40;76.90;;;;;;1769679;80;20252;-78
2021/05/19 04:08:28;;;;;;;;;;;33.40;76.90;;;;;;1772896;80;20140;-79
2021/05/19 04:10:58;;;;;;;;;;;33.40;77.70;;;;;;1772568;80;20209;-76
2021/05/19 04:13:28;;;;;;;;;;;33.40;77.80;;;;;;1764888;80;20216;-78
2021/05/19 04:15:58;;;;;;;;;;;33.50;78.20;;;;;;1776265;80;20221;-79
2021/05/19 04:18:28;;;;;;;;;;;33.50;77.80;;;;;;1775248;80;20214;-80
2021/05/19 04:20:58;;;;;;;;;;;33.50;76.90;;;;;;1772418;80;20177;-81
2021/05/19 04:23:27;;;;;;;;;;;33.60;78.20;;;;;;1773341;80;20180;-80
2021/05/19 04:25:57;;;;;;;;;;;33.60;76.00;;;;;;1771314;79;20178;-78
2021/05/19 04:28:27;;;;;;;;;;;33.60;76.50;;;;;;1759410;80;20228;-79
2021/05/19 04:30:57;;;;;;;;;;;33.70;76.70;;;;;;1779895;80;20256;-79
2021/05/19 04:33:27;;;;;;;;;;;33.70;75.80;;;;;;1778388;80;20264;-79
2021/05/19 04:35:57;;;;;;;;;;;33.70;76.40;;;;;;1778934;80;20247;-78
2021/05/19 04:38:27;;;;;;;;;;;33.70;75.60;;;;;;1770317;80;20208;-78
2021/05/19 04:40:57;;;;;;;;;;;33.80;75.50;;;;;;1765556;80;20218;-78
2021/05/19 04:43:26;;;;;;;;;;;33.90;75.70;;;;;;1763930;80;20253;-79
2021/05/19 04:45:57;;;;;;;;;;;34.00;74.40;;;;;;1765939;80;20212;-80
2021/05/19 04:48:27;;;;;;;;;;;34.00;73.60;;;;;;1776658;80;20269;-79
2021/05/19 04:50:57;;;;;;;;;;;33.90;73.30;;;;;;1767830;80;20164;-79
2021/05/19 04:53:27;;;;;;;;;;;34.00;73.10;;;;;;1766187;80;20194;-77
2021/05/19 04:55:57;;;;;;;;;;;34.00;73.60;;;;;;1774828;80;20264;-77
2021/05/19 04:58:27;;;;;;;;;;;34.00;73.20;;;;;;1770064;79;20194;-79
2021/05/19 05:00:57;;;;;;;;;;;34.10;76.70;;;;;;1776421;80;20181;-78
2021/05/19 05:03:27;;;;;;;;;;;34.10;75.00;;;;;;1765616;80;20497;-79
2021/05/19 05:05:57;;;;;;;;;;;34.10;74.60;;;;;;1770325;80;20452;-78
2021/05/19 05:08:27;;;;;;;;;;;34.10;75.30;;;;;;1765008;80;20373;-78
2021/05/19 05:10:58;;;;;;;;;;;34.00;75.80;;;;;;1765123;80;20218;-77
2021/05/19 05:13:27;;;;;;;;;;;33.90;75.10;;;;;;1770041;80;20198;-78
2021/05/19 05:15:57;;;;;;;;;;;33.90;75.10;;;;;;1765727;80;20246;-79
2021/05/19 05:18:27;;;;;;;;;;;33.80;76.80;;;;;;1765370;80;20166;-78
2021/05/19 05:20:57;;;;;;;;;;;33.80;77.40;;;;;;1749540;81;20231;-78
2021/05/19 05:23:28;;;;;;;;;;;33.70;75.60;;;;;;1720906;82;20201;-79
2021/05/19 05:25:58;;;;;;;;;;;33.70;77.70;;;;;;1713902;82;20252;-79
2021/05/19 05:28:28;;;;;;;;;;;33.80;77.80;;;;;;1775123;79;20130;-81
2021/05/19 05:30:58;;;;;;;;;;;33.90;75.90;;;;;;1773231;79;20260;-78
2021/05/19 05:33:29;;;;;;;;;;;34.00;75.90;;;;;;1767110;80;20166;-79
2021/05/19 05:35:58;;;;;;;;;;;34.20;74.60;;;;;;1768379;80;20202;-78
2021/05/19 05:38:28;;;;;;;;;;;34.30;76.60;;;;;;1767589;80;20185;-78
2021/05/19 05:40:58;;;;;;;;;;;34.50;76.70;;;;;;1761506;80;20578;-79
2021/05/19 05:43:27;;;;;;;;;;;34.70;75.00;;;;;;1777609;79;20276;-79
2021/05/19 05:45:57;;;;;;;;;;;34.80;73.50;;;;;;1767750;80;20338;-78
2021/05/19 05:48:27;;;;;;;;;;;35.00;73.00;;;;;;1770170;80;20244;-78
2021/05/19 05:50:59;;;;;;;;;;;35.00;72.30;;;;;;1756679;80;20247;-79
2021/05/19 05:53:28;;;;;;;;;;;35.00;73.80;;;;;;1775858;79;20264;-79
2021/05/19 05:55:58;;;;;;;;;;;35.00;73.80;;;;;;1769247;80;20478;-79
2021/05/19 05:58:28;;;;;;;;;;;34.90;72.30;;;;;;1782999;79;20218;-79
2021/05/19 06:00:58;;;;;;;;;;;34.80;74.10;;;;;;1790008;80;20202;-79
2021/05/19 06:03:28;;;;;;;;;;;34.70;74.30;;;;;;1783571;79;20182;-79
2021/05/19 06:05:59;;;;;;;;;;;34.60;75.60;;;;;;1782866;79;20212;-80
2021/05/19 06:08:29;;;;;;;;;;;34.40;74.40;;;;;;1759352;80;20168;-78
2021/05/19 06:10:59;;;;;;;;;;;34.30;75.40;;;;;;1779493;79;20217;-79
2021/05/19 06:13:29;;;;;;;;;;;34.10;76.50;;;;;;1778038;79;20232;-81
2021/05/19 06:15:59;;;;;;;;;;;34.10;75.10;;;;;;1783088;80;20166;-81
2021/05/19 06:18:28;;;;;;;;;;;34.00;76.10;;;;;;1777701;79;20222;-79
2021/05/19 06:20:58;;;;;;;;;;;33.90;76.80;;;;;;1787070;80;20218;-80
2021/05/19 06:23:28;;;;;;;;;;;33.90;77.10;;;;;;1783329;80;20214;-81
2021/05/19 06:25:59;;;;;;;;;;;33.90;77.80;;;;;;1757345;80;20536;-81
2021/05/19 06:28:29;;;;;;;;;;;33.90;75.50;;;;;;1767034;79;20309;-79
2021/05/19 06:30:59;;;;;;;;;;;33.90;75.90;;;;;;1767678;80;20212;-78
2021/05/19 06:33:29;;;;;;;;;;;33.90;73.70;;;;;;1766201;80;20483;-79
2021/05/19 06:36:00;;;;;;;;;;;33.90;74.60;;;;;;1767596;80;20130;-79
2021/05/19 06:38:30;;;;;;;;;;;34.00;74.40;;;;;;1757845;80;20173;-79
2021/05/19 06:40:59;;;;;;;;;;;34.00;75.30;;;;;;1761935;80;20428;-80
2021/05/19 06:43:30;;;;;;;;;;;34.10;75.20;;;;;;1771035;80;20116;-79
2021/05/19 06:46:00;;;;;;;;;;;34.10;74.60;;;;;;1782632;80;20196;-79
2021/05/19 06:48:33;;;;;;;;;;;34.20;75.80;;;;;;1776463;80;20216;-79
2021/05/19 06:51:03;;;;;;;;;;;34.20;75.70;;;;;;1776735;80;20222;-78
2021/05/19 06:53:33;;;;;;;;;;;34.10;73.90;;;;;;1786336;80;20253;-78
2021/05/19 06:56:03;;;;;;;;;;;34.10;74.60;;;;;;1785153;80;20242;-79
2021/05/19 06:58:32;;;;;;;;;;;34.00;72.00;;;;;;1781604;80;20196;-78
2021/05/19 07:01:02;;;;;;;;;;;33.90;73.20;;;;;;1779114;80;20445;-79
2021/05/19 07:03:33;;;;;;;;;;;34.00;76.20;;;;;;1782596;79;20185;-78
2021/05/19 07:06:03;;;;;;;;;;;33.90;76.10;;;;;;1775051;80;20236;-79
2021/05/19 07:08:33;;;;;;;;;;;33.90;76.80;;;;;;1785565;80;20539;-80
2021/05/19 07:11:06;;;;;;;;;;;33.90;76.50;;;;;;1785509;79;20217;-78
2021/05/19 07:13:37;;;;;;;;;;;33.90;72.70;;;;;;1788903;80;20162;-79
2021/05/19 07:16:08;;;;;;;;;;;34.00;72.50;;;;;;1788169;80;20233;-79
2021/05/19 07:18:38;;;;;;;;;;;34.00;72.80;;;;;;1795649;79;20196;-78
2021/05/19 07:21:08;;;;;;;;;;;34.10;73.30;;;;;;1763170;80;20217;-79
2021/05/19 07:23:38;;;;;;;;;;;34.10;74.20;;;;;;1773059;79;20143;-78
2021/05/19 07:26:08;;;;;;;;;;;34.10;69.40;;;;;;1794122;80;20210;-78
2021/05/19 07:28:42;;;;;;;;;;;34.20;74.40;;;;;;1787605;80;20296;-79
2021/05/19 07:31:12;;;;;;;;;;;34.20;72.30;;;;;;1782015;80;20202;-79
2021/05/19 07:33:42;;;;;;;;;;;34.30;70.80;;;;;;1785002;80;20610;-78
2021/05/19 07:36:12;;;;;;;;;;;34.30;70.90;;;;;;1785817;78;20163;-80
2021/05/19 07:38:43;;;;;;;;;;;34.40;70.30;;;;;;1788629;80;20139;-79
2021/05/19 07:41:13;;;;;;;;;;;34.40;70.40;;;;;;1783773;80;20488;-79
2021/05/19 07:43:43;;;;;;;;;;;34.50;70.30;;;;;;1775418;79;20240;-80
2021/05/19 07:46:13;;;;;;;;;;;34.40;69.70;;;;;;1772660;79;20248;-79
2021/05/19 07:48:41;;;;;;;;;;;34.40;70.50;;;;;;1768878;80;20651;-80
2021/05/19 07:51:09;;;;;;;;;;;34.40;69.70;;;;;;1780689;79;20247;-79
2021/05/19 07:53:37;;;;;;;;;;;34.40;71.10;;;;;;1774062;80;20205;-81
2021/05/19 07:58:41;;;;;;;;;;;34.40;73.40;;;;;;1790691;80;20130;-79
2021/05/19 08:01:12;;;;;;;;;;;34.40;72.90;;;;;;1784416;79;20263;-80
2021/05/19 08:03:35;;;;;;;;;;;34.40;70.60;;;;;;1779298;80;20267;-80
2021/05/19 08:06:03;;;;;;;;;;;34.40;71.80;;;;;;1765278;79;20176;-80
2021/05/19 08:08:32;;;;;;;;;;;34.40;68.80;;;;;;1781920;80;20166;-79
2021/05/19 08:11:01;;;;;;;;;;;34.40;68.00;;;;;;1751504;81;20216;-80
2021/05/19 08:13:29;;;;;;;;;;;34.40;69.00;;;;;;1779529;80;20324;-80
2021/05/19 08:15:57;;;;;;;;;;;34.40;69.40;;;;;;1781452;80;20449;-81
2021/05/19 08:18:24;;;;;;;;;;;34.40;68.80;;;;;;1788006;80;20190;-80
2021/05/19 08:20:57;;;;;;;;;;;34.40;68.20;;;;;;1760757;80;20430;-82
2021/05/19 08:23:28;;;;;;;;;;;34.40;69.00;;;;;;1785463;80;20156;-81
2021/05/19 08:25:59;;;;;;;;;;;34.30;69.50;;;;;;1760790;80;20283;-82
2021/05/19 08:28:33;;;;;;;;;;;34.30;68.60;;;;;;1770375;79;20203;-81
2021/05/19 08:31:04;;;;;;;;;;;34.20;69.00;;;;;;1753312;81;20289;-83
2021/05/19 08:33:35;;;;;;;;;;;34.10;69.20;;;;;;1756158;80;20217;-80
2021/05/19 08:36:05;;;;;;;;;;;33.90;70.90;;;;;;1742570;81;20600;-82
2021/05/19 08:38:35;;;;;;;;;;;33.70;71.90;;;;;;1777569;80;20171;-84
2021/05/19 08:41:05;;;;;;;;;;;33.50;72.50;;;;;;1775405;80;20406;-83
2021/05/19 08:43:35;;;;;;;;;;;33.30;73.00;;;;;;1773412;79;20202;-84
2021/05/19 08:46:07;;;;;;;;;;;33.20;74.40;;;;;;1764260;80;20449;-86
2021/05/19 08:48:37;;;;;;;;;;;33.10;75.10;;;;;;1773917;80;20257;-85
2021/05/19 08:51:07;;;;;;;;;;;33.00;75.10;;;;;;1771422;79;20265;-81
2021/05/19 08:53:37;;;;;;;;;;;32.90;75.70;;;;;;1768970;80;20208;-83
2021/05/19 08:56:11;;;;;;;;;;;32.80;76.10;;;;;;1767468;80;20375;-79
2021/05/19 08:58:39;;;;;;;;;;;32.80;76.20;;;;;;1773880;80;20425;-80
2021/05/19 09:01:09;;;;;;;;;;;32.80;76.90;;;;;;1776264;79;20210;-80
2021/05/19 09:03:42;;;;;;;;;;;32.70;77.40;;;;;;1776170;79;20213;-79
2021/05/19 09:06:12;;;;;;;;;;;32.70;77.40;;;;;;1775779;79;20228;-79
2021/05/19 09:08:41;;;;;;;;;;;32.60;78.00;;;;;;1772918;81;20187;-79
2021/05/19 09:11:13;;;;;;;;;;;32.50;78.50;;;;;;1762717;79;20162;-77
2021/05/19 09:13:45;;;;;;;;;;;32.40;79.10;;;;;;1758479;80;20542;-78
2021/05/19 09:16:16;;;;;;;;;;;32.40;79.20;;;;;;1770297;80;20209;-79
2021/05/19 09:18:46;;;;;;;;;;;32.40;79.10;;;;;;1776536;79;20178;-79
2021/05/19 09:21:18;;;;;;;;;;;32.30;78.50;;;;;;1771339;80;20301;-81
2021/05/19 09:23:51;;;;;;;;;;;32.20;79.00;;;;;;1774216;80;20575;-78
2021/05/19 09:26:20;;;;;;;;;;;32.20;79.10;;;;;;1770684;80;20432;-79
2021/05/19 09:28:50;;;;;;;;;;;32.20;79.80;;;;;;1770414;80;20186;-79
2021/05/19 09:31:20;;;;;;;;;;;32.20;79.40;;;;;;1771676;80;20233;-80
2021/05/19 09:33:51;;;;;;;;;;;32.10;79.70;;;;;;1773513;79;20423;-80
2021/05/19 09:36:22;;;;;;;;;;;32.10;79.80;;;;;;1772869;80;20393;-79
2021/05/19 09:38:53;;;;;;;;;;;32.10;80.20;;;;;;1768500;80;20418;-78
2021/05/19 09:41:25;;;;;;;;;;;32.00;79.80;;;;;;1772524;80;20143;-79
2021/05/19 09:43:57;;;;;;;;;;;32.00;80.10;;;;;;1711403;83;20357;-80
2021/05/19 09:49:00;;;;;;;;;;;32.10;80.60;;;;;;1772811;80;20128;-80
2021/05/19 09:51:32;;;;;;;;;;;32.10;78.60;;;;;;1782275;80;20222;-79
2021/05/19 09:54:02;;;;;;;;;;;32.10;76.30;;;;;;1779084;80;20239;-78
2021/05/19 09:56:33;;;;;;;;;;;32.10;75.30;;;;;;1770307;80;20191;-78
2021/05/19 09:59:04;;;;;;;;;;;32.20;75.60;;;;;;1775144;80;20214;-78
2021/05/19 10:01:34;;;;;;;;;;;32.20;75.10;;;;;;1787167;80;20247;-80
2021/05/19 10:04:04;;;;;;;;;;;32.20;75.70;;;;;;1782269;80;20260;-80
2021/05/19 10:06:34;;;;;;;;;;;32.20;76.30;;;;;;1776546;80;20202;-78
2021/05/19 10:09:06;;;;;;;;;;;32.20;75.80;;;;;;1767929;80;20361;-80
2021/05/19 10:11:36;;;;;;;;;;;32.30;75.00;;;;;;1768634;80;20248;-80
2021/05/19 10:14:10;;;;;;;;;;;32.30;75.50;;;;;;1730298;81;20243;-79
2021/05/19 10:16:39;;;;;;;;;;;32.30;76.90;;;;;;1699794;83;20232;-80
2021/05/19 10:19:09;;;;;;;;;;;32.30;78.00;;;;;;1711502;82;20532;-81
2021/05/19 10:21:39;;;;;;;;;;;32.30;78.30;;;;;;1739431;81;20260;-80
2021/05/19 10:24:11;;;;;;;;;;;32.20;78.70;;;;;;1749597;81;20192;-80
2021/05/19 10:26:42;;;;;;;;;;;32.10;79.40;;;;;;1780429;80;20233;-81
2021/05/19 10:29:12;;;;;;;;;;;32.00;79.60;;;;;;1766417;80;20234;-80
2021/05/19 10:31:43;;;;;;;;;;;31.90;81.50;;;;;;1782681;80;20135;-81
2021/05/19 10:34:13;;;;;;;;;;;31.80;83.70;;;;;;1777473;79;20173;-80
2021/05/19 10:36:43;;;;;;;;;;;31.60;86.50;;;;;;1780145;79;20170;-80
2021/05/19 10:39:15;;;;;;;;;;;31.40;87.30;;;;;;1782269;78;20193;-80
2021/05/19 10:41:46;;;;;;;;;;;31.30;86.70;;;;;;1774535;79;20286;-80
2021/05/19 10:44:17;;;;;;;;;;;31.20;86.70;;;;;;1787540;80;20175;-80
2021/05/19 10:46:51;;;;;;;;;;;31.10;87.60;;;;;;1776243;80;20282;-78
2021/05/19 10:49:20;;;;;;;;;;;31.10;87.30;;;;;;1793298;80;20198;-79
2021/05/19 10:52:01;;;;;;;;;;;31.00;87.20;;;;;;1793403;80;20143;-78
2021/05/19 10:59:30;;;;;;;;;;;30.90;86.80;;;;;;1777104;80;20239;-79
2021/05/19 11:02:00;;;;;;;;;;;30.90;89.40;;;;;;1746183;81;20216;-79
2021/05/19 11:04:30;;;;;;;;;;;30.80;89.70;;;;;;1750286;81;20212;-80
2021/05/19 11:07:03;;;;;;;;;;;30.80;90.10;;;;;;1750798;80;20182;-82
2021/05/19 11:09:34;;;;;;;;;;;30.80;89.70;;;;;;1757777;80;20275;-79
2021/05/19 11:12:09;;;;;;;;;;;30.70;89.10;;;;;;1782583;79;20129;-79
2021/05/19 11:14:48;;;;;;;;;;;30.70;89.00;;;;;;1779519;80;20151;-80
2021/05/19 11:17:21;;;;;;;;;;;30.70;88.70;;;;;;1769384;80;20206;-80
2021/05/19 11:19:46;;;;;;;;;;;30.70;89.00;;;;;;1791801;79;20201;-81
2021/05/19 11:22:23;;;;;;;;;;;30.80;89.30;;;;;;1790082;79;20217;-80
2021/05/19 11:24:59;;;;;;;;;;;30.70;88.80;;;;;;1776353;80;20217;-80
2021/05/19 11:27:35;;;;;;;;;;;30.70;88.80;;;;;;1772932;80;20138;-79
2021/05/19 11:30:07;;;;;;;;;;;30.70;88.30;;;;;;1769992;80;20213;-79
2021/05/19 11:32:37;;;;;;;;;;;30.70;87.80;;;;;;1769622;80;20216;-79
2021/05/19 11:35:08;;;;;;;;;;;30.70;88.40;;;;;;1779190;80;20189;-79
2021/05/19 11:37:39;;;;;;;;;;;30.70;88.80;;;;;;1772838;80;20222;-80
2021/05/19 11:40:10;;;;;;;;;;;30.70;88.70;;;;;;1753619;80;20144;-81
2021/05/19 11:42:40;;;;;;;;;;;30.70;88.50;;;;;;1758163;79;20196;-79
2021/05/19 11:45:10;;;;;;;;;;;30.70;88.10;;;;;;1765775;80;20193;-80
2021/05/19 11:47:41;;;;;;;;;;;30.70;88.10;;;;;;1778659;80;20233;-80
2021/05/19 11:50:12;;;;;;;;;;;30.80;89.30;;;;;;1773295;80;20231;-79
2021/05/19 11:52:44;;;;;;;;;;;30.80;89.00;;;;;;1778297;79;20209;-79
2021/05/19 11:55:17;;;;;;;;;;;30.80;89.30;;;;;;1782278;79;20228;-79
2021/05/19 11:57:46;;;;;;;;;;;30.80;89.40;;;;;;1785290;80;20512;-80
2021/05/19 12:00:17;;;;;;;;;;;30.70;89.00;;;;;;1791933;80;20431;-80
2021/05/19 12:02:48;;;;;;;;;;;30.70;89.00;;;;;;1784085;78;20163;-81
2021/05/19 12:05:18;;;;;;;;;;;30.70;89.40;;;;;;1784038;79;20179;-80
2021/05/19 12:07:49;;;;;;;;;;;30.70;89.80;;;;;;1785271;80;20232;-80
2021/05/19 12:10:20;;;;;;;;;;;30.70;89.40;;;;;;1776099;80;20202;-80
2021/05/19 12:12:53;;;;;;;;;;;30.70;89.00;;;;;;1779554;79;20505;-79
2021/05/19 12:15:21;;;;;;;;;;;30.70;89.80;;;;;;1779355;79;20218;-80
2021/05/19 12:17:52;;;;;;;;;;;30.70;90.20;;;;;;1783915;80;20253;-80
2021/05/19 12:20:25;;;;;;;;;;;30.60;90.30;;;;;;1767255;79;20190;-82
2021/05/19 12:22:54;;;;;;;;;;;30.60;90.20;;;;;;1775370;79;20253;-81
2021/05/19 12:25:24;;;;;;;;;;;30.60;90.00;;;;;;1775859;79;20266;-79
2021/05/19 12:28:03;;;;;;;;;;;30.60;89.90;;;;;;1769842;80;20255;-78
2021/05/19 12:30:27;;;;;;;;;;;30.60;89.80;;;;;;1761840;80;20395;-77
2021/05/19 12:33:02;;;;;;;;;;;30.60;90.20;;;;;;1770058;80;20184;-78
2021/05/19 12:35:29;;;;;;;;;;;30.60;91.10;;;;;;1777252;80;20182;-78
2021/05/19 12:38:02;;;;;;;;;;;30.50;91.20;;;;;;1788883;80;20242;-78
2021/05/19 12:40:32;;;;;;;;;;;30.50;91.30;;;;;;1790217;80;20225;-78
2021/05/19 12:43:04;;;;;;;;;;;30.40;91.10;;;;;;1790528;80;20132;-77
2021/05/19 12:45:36;;;;;;;;;;;30.40;91.20;;;;;;1778503;80;20186;-78
2021/05/19 12:48:11;;;;;;;;;;;30.40;91.10;;;;;;1772476;79;20207;-78
2021/05/19 12:50:40;;;;;;;;;;;30.40;91.00;;;;;;1774297;80;20187;-78
2021/05/19 12:53:11;;;;;;;;;;;30.30;91.20;;;;;;1778284;79;20460;-78
2021/05/19 12:55:40;;;;;;;;;;;30.30;91.10;;;;;;1775538;80;20272;-78
2021/05/19 12:58:11;;;;;;;;;;;30.30;91.40;;;;;;1765277;80;20174;-79
2021/05/19 13:00:43;;;;;;;;;;;30.30;91.30;;;;;;1766277;80;20138;-79
2021/05/19 13:03:15;;;;;;;;;;;30.30;91.10;;;;;;1768960;80;20171;-78
2021/05/19 13:05:45;;;;;;;;;;;30.30;91.00;;;;;;1760978;80;20215;-79
2021/05/19 13:08:16;;;;;;;;;;;30.30;90.90;;;;;;1761278;80;20576;-78
2021/05/19 13:10:50;;;;;;;;;;;30.30;90.90;;;;;;1779220;80;20221;-78
2021/05/19 13:13:22;;;;;;;;;;;30.30;91.00;;;;;;1775661;80;20180;-79
2021/05/19 13:16:01;;;;;;;;;;;30.30;91.20;;;;;;1776950;80;20206;-78
2021/05/19 13:18:33;;;;;;;;;;;30.20;91.10;;;;;;1783465;80;20178;-79
2021/05/19 13:21:04;;;;;;;;;;;30.20;91.00;;;;;;1771142;80;20218;-79
2021/05/19 13:23:27;;;;;;;;;;;30.10;90.80;;;;;;1776093;80;20240;-79
2021/05/19 13:25:58;;;;;;;;;;;30.10;90.80;;;;;;1772333;80;20162;-79
2021/05/19 13:28:29;;;;;;;;;;;30.10;90.70;;;;;;1752531;80;20201;-79
2021/05/19 13:30:58;;;;;;;;;;;30.10;90.70;;;;;;1770039;80;20216;-79
2021/05/19 13:34:16;;;;;;;;;;;30.10;90.60;;;;;;1771425;80;20434;-81
2021/05/19 13:38:31;;;;;;;;;;;30.10;90.60;;;;;;1756921;80;20531;-89
2021/05/19 13:41:01;;;;;;;;;;;30.10;90.30;;;;;;1762892;80;20227;-90
2021/05/19 13:43:31;;;;;;;;;;;30.10;90.20;;;;;;1753976;79;20180;-88
2021/05/19 13:46:03;;;;;;;;;;;30.10;90.20;;;;;;1780352;80;20236;-87
2021/05/19 13:48:39;;;;;;;;;;;30.10;90.50;;;;;;1781067;80;20162;-90
2021/05/19 13:51:08;;;;;;;;;;;30.10;90.30;;;;;;1765618;80;20162;-88
2021/05/19 13:53:46;;;;;;;;;;;30.20;90.60;;;;;;1765778;80;20175;-89
2021/05/19 13:56:20;;;;;;;;;;;30.10;90.90;;;;;;1763548;81;20639;-89
2021/05/19 13:58:50;;;;;;;;;;;30.10;90.60;;;;;;1785774;80;20259;-89
2021/05/19 14:01:22;;;;;;;;;;;30.00;90.50;;;;;;1790279;80;20567;-89
2021/05/19 14:03:51;;;;;;;;;;;30.00;90.50;;;;;;1791298;80;20171;-89
2021/05/19 14:06:21;;;;;;;;;;;30.00;90.80;;;;;;1782529;79;20134;-90
2021/05/19 14:08:54;;;;;;;;;;;30.00;90.80;;;;;;1784351;80;20201;-89
2021/05/19 14:11:27;;;;;;;;;;;30.00;90.80;;;;;;1791481;80;20210;-89
2021/05/19 14:27:07;;;;;;;;;;;30.00;91.10;;;;;;1770501;79;20221;-89
2021/05/19 14:29:23;;;;;;;;;;;30.00;91.00;;;;;;1769573;80;20181;-88
2021/05/19 14:31:57;;;;;;;;;;;30.00;91.20;;;;;;1778790;80;20230;-89
2021/05/19 14:34:31;;;;;;;;;;;30.00;91.50;;;;;;1759881;80;20509;-87
2021/05/19 15:00:05;;;;;;;;;;;29.70;91.90;;;;;;1776191;79;20451;-87
2021/05/19 15:02:40;;;;;;;;;;;29.70;91.80;;;;;;1772679;79;20216;-88
2021/05/19 15:05:06;;;;;;;;;;;29.70;91.60;;;;;;1774180;80;20236;-88
2021/05/19 15:07:40;;;;;;;;;;;29.70;91.50;;;;;;1784507;79;20203;-89
2021/05/19 15:10:10;;;;;;;;;;;29.70;91.40;;;;;;1763472;80;20164;-89
2021/05/19 15:15:33;;;;;;;;;;;29.80;91.10;;;;;;1726214;81;20172;-87
2021/05/19 15:18:04;;;;;;;;;;;29.80;91.00;;;;;;1706191;80;20376;-87
2021/05/19 15:20:37;;;;;;;;;;;29.70;91.00;;;;;;1695050;82;20267;-88
2021/05/19 15:23:08;;;;;;;;;;;29.70;91.00;;;;;;1698727;83;20281;-89
2021/05/19 15:25:38;;;;;;;;;;;29.70;90.90;;;;;;1706424;83;20269;-88
2021/05/19 15:28:09;;;;;;;;;;;29.60;91.00;;;;;;1707917;81;20209;-88
2021/05/19 15:30:45;;;;;;;;;;;29.60;90.80;;;;;;1734753;81;20264;-90
2021/05/19 15:33:11;;;;;;;;;;;29.60;90.90;;;;;;1730526;81;20342;-88
2021/05/19 15:35:43;;;;;;;;;;;29.50;90.80;;;;;;1726544;82;20198;-90
2021/05/19 15:38:13;;;;;;;;;;;29.50;91.00;;;;;;1719929;79;20220;-87
2021/05/19 15:40:46;;;;;;;;;;;29.50;90.80;;;;;;1724839;81;20295;-87
2021/05/19 15:43:16;;;;;;;;;;;29.50;90.80;;;;;;1725006;81;20349;-88
2021/05/19 15:45:46;;;;;;;;;;;29.40;90.80;;;;;;1736752;81;20250;-87
2021/05/19 15:48:16;;;;;;;;;;;29.40;90.70;;;;;;1717706;82;20263;-88
2021/05/19 15:50:47;;;;;;;;;;;29.40;90.50;;;;;;1739788;81;20279;-87
2021/05/19 15:53:21;;;;;;;;;;;29.50;90.40;;;;;;1769324;80;20226;-88
2021/05/19 15:55:51;;;;;;;;;;;29.50;90.30;;;;;;1765179;80;20182;-87
2021/05/19 15:58:21;;;;;;;;;;;29.50;90.40;;;;;;1763532;80;20218;-89
2021/05/19 16:00:54;;;;;;;;;;;29.60;90.50;;;;;;1768732;80;20583;-90
2021/05/19 16:03:31;;;;;;;;;;;29.60;90.50;;;;;;1768807;79;20234;-87
2021/05/19 16:05:58;;;;;;;;;;;29.60;90.60;;;;;;1744794;81;20192;-88